createdAt,value
2022-08-16T00:00:06.727Z,19.38
2022-08-16T00:00:38.410Z,19.38
2022-08-16T00:00:53.703Z,19.38
2022-08-16T00:01:26.500Z,19.38
2022-08-16T00:01:42.501Z,19.38
2022-08-16T00:02:13.634Z,19.38
2022-08-16T00:02:35.260Z,19.38
2022-08-16T00:03:01.625Z,19.50
2022-08-16T00:03:37.752Z,19.50
2022-08-16T00:04:05.616Z,19.50
2022-08-16T00:04:34.777Z,19.50
2022-08-16T00:04:53.643Z,19.50
2022-08-16T00:05:25.606Z,19.38
2022-08-16T00:05:57.990Z,19.38
2022-08-16T00:06:29.779Z,19.38
2022-08-16T00:07:01.632Z,19.27
2022-08-16T00:07:33.655Z,19.27
2022-08-16T00:08:05.655Z,19.27
2022-08-16T00:08:36.854Z,19.27
2022-08-16T00:08:53.629Z,19.27
2022-08-16T00:09:25.664Z,19.22
2022-08-16T00:09:43.371Z,19.22
2022-08-16T00:10:20.655Z,19.22
2022-08-16T00:10:34.844Z,19.22
2022-08-16T00:11:01.720Z,19.22
2022-08-16T00:11:36.701Z,19.27
2022-08-16T00:12:05.697Z,19.27
2022-08-16T00:12:34.822Z,19.27
2022-08-16T00:12:53.625Z,19.27
2022-08-16T00:13:25.708Z,19.38
2022-08-16T00:13:42.812Z,19.38
2022-08-16T00:14:13.630Z,19.38
2022-08-16T00:14:34.741Z,19.38
2022-08-16T00:15:01.852Z,19.38
2022-08-16T00:15:52.147Z,19.38
2022-08-16T00:17:00.776Z,19.27
2022-08-16T00:17:25.710Z,19.27
2022-08-16T00:17:56.785Z,19.22
2022-08-16T00:18:13.621Z,19.22
2022-08-16T00:18:34.672Z,19.22
2022-08-16T00:19:01.554Z,19.22
2022-08-16T00:19:41.481Z,19.22
2022-08-16T00:20:05.889Z,19.22
2022-08-16T00:20:34.649Z,19.22
2022-08-16T00:20:54.460Z,19.22
2022-08-16T00:21:25.637Z,19.22
2022-08-16T00:21:42.795Z,19.22
2022-08-16T00:22:15.421Z,19.22
2022-08-16T00:22:34.559Z,19.22
2022-08-16T00:23:01.473Z,19.22
2022-08-16T00:23:34.840Z,19.22
2022-08-16T00:24:11.369Z,19.22
2022-08-16T00:24:34.701Z,19.22
2022-08-16T00:24:54.338Z,19.22
2022-08-16T00:26:36.036Z,19.22
2022-08-16T00:27:01.915Z,19.22
2022-08-16T00:27:35.106Z,19.22
2022-08-16T00:28:05.644Z,19.27
2022-08-16T00:28:35.598Z,19.27
2022-08-16T00:28:54.792Z,19.27
2022-08-16T00:29:25.557Z,19.27
2022-08-16T00:29:42.746Z,19.22
2022-08-16T00:30:25.982Z,19.22
2022-08-16T00:30:34.656Z,19.22
2022-08-16T00:31:01.661Z,19.22
2022-08-16T00:31:59.678Z,19.22
2022-08-16T00:32:06.445Z,19.22
2022-08-16T00:32:35.693Z,19.22
2022-08-16T00:33:09.699Z,19.22
2022-08-16T00:33:35.752Z,19.22
2022-08-16T00:33:57.727Z,19.22
2022-08-16T00:34:52.275Z,19.22
2022-08-16T00:35:01.875Z,19.22
2022-08-16T00:35:34.859Z,19.22
2022-08-16T00:36:05.686Z,19.22
2022-08-16T00:36:34.663Z,19.22
2022-08-16T00:36:55.915Z,19.11
2022-08-16T00:37:56.630Z,19.11
2022-08-16T00:38:43.773Z,19.11
2022-08-16T00:39:01.783Z,19.11
2022-08-16T00:39:33.686Z,19.11
2022-08-16T00:40:06.058Z,19.00
2022-08-16T00:40:43.724Z,19.00
2022-08-16T00:41:09.685Z,19.00
2022-08-16T00:41:38.232Z,19.00
2022-08-16T00:41:57.740Z,19.00
2022-08-16T00:42:31.392Z,19.00
2022-08-16T00:43:01.593Z,19.00
2022-08-16T00:43:42.598Z,19.11
2022-08-16T00:44:05.629Z,19.11
2022-08-16T00:44:35.721Z,19.11
2022-08-16T00:44:53.794Z,19.11
2022-08-16T00:45:25.724Z,19.22
2022-08-16T00:45:58.274Z,19.22
2022-08-16T00:46:33.556Z,19.22
2022-08-16T00:46:53.991Z,19.22
2022-08-16T00:47:17.730Z,19.22
2022-08-16T00:47:49.843Z,19.27
2022-08-16T00:48:30.333Z,19.27
2022-08-16T00:48:44.088Z,19.27
2022-08-16T00:49:18.749Z,19.27
2022-08-16T00:49:44.355Z,19.27
2022-08-16T00:49:57.684Z,19.27
2022-08-16T00:50:36.271Z,19.27
2022-08-16T00:51:01.618Z,19.27
2022-08-16T00:51:33.761Z,19.27
2022-08-16T00:52:05.725Z,19.27
2022-08-16T00:52:35.478Z,19.27
2022-08-16T00:52:54.308Z,19.27
2022-08-16T00:53:25.741Z,19.27
2022-08-16T00:53:43.557Z,19.27
2022-08-16T00:54:13.595Z,19.27
2022-08-16T00:54:34.697Z,19.27
2022-08-16T00:55:01.586Z,19.22
2022-08-16T00:55:37.607Z,19.22
2022-08-16T00:56:05.730Z,19.22
2022-08-16T00:56:56.899Z,19.22
2022-08-16T00:57:11.585Z,19.27
2022-08-16T00:57:58.539Z,19.27
2022-08-16T00:58:16.374Z,19.27
2022-08-16T00:58:45.603Z,19.27
2022-08-16T00:59:17.706Z,19.27
2022-08-16T00:59:58.902Z,19.27
2022-08-16T01:00:23.893Z,19.27
2022-08-16T01:00:39.088Z,19.27
2022-08-16T01:01:10.549Z,19.22
2022-08-16T01:01:35.999Z,19.22
2022-08-16T01:01:57.539Z,19.22
2022-08-16T01:02:31.703Z,19.22
2022-08-16T01:03:01.635Z,19.22
2022-08-16T01:03:35.114Z,19.22
2022-08-16T01:04:05.568Z,19.22
2022-08-16T01:04:34.634Z,19.22
2022-08-16T01:05:09.680Z,19.22
2022-08-16T01:05:25.570Z,19.22
2022-08-16T01:05:42.706Z,19.22
2022-08-16T01:06:39.780Z,19.22
2022-08-16T01:07:02.605Z,19.22
2022-08-16T01:07:51.251Z,19.22
2022-08-16T01:08:34.901Z,19.11
2022-08-16T01:08:53.680Z,19.11
2022-08-16T01:09:25.678Z,19.11
2022-08-16T01:09:43.140Z,19.11
2022-08-16T01:10:16.139Z,19.11
2022-08-16T01:10:34.838Z,19.11
2022-08-16T01:11:18.587Z,19.11
2022-08-16T01:11:54.143Z,19.11
2022-08-16T01:12:26.672Z,19.22
2022-08-16T01:12:40.776Z,19.22
2022-08-16T01:13:12.389Z,19.22
2022-08-16T01:13:34.712Z,19.27
2022-08-16T01:13:57.725Z,19.27
2022-08-16T01:14:30.532Z,19.27
2022-08-16T01:15:01.684Z,19.27
2022-08-16T01:15:33.576Z,19.27
2022-08-16T01:16:05.598Z,19.27
2022-08-16T01:16:36.728Z,19.22
2022-08-16T01:16:55.324Z,19.22
2022-08-16T01:17:25.539Z,19.22
2022-08-16T01:17:43.054Z,19.22
2022-08-16T01:18:40.820Z,19.11
2022-08-16T01:18:45.530Z,19.11
2022-08-16T01:19:17.588Z,19.11
2022-08-16T01:19:34.702Z,19.11
2022-08-16T01:20:23.480Z,19.11
2022-08-16T01:20:34.690Z,19.11
2022-08-16T01:20:53.517Z,19.00
2022-08-16T01:21:33.686Z,19.00
2022-08-16T01:21:57.790Z,19.00
2022-08-16T01:23:01.739Z,19.00
2022-08-16T01:24:00.726Z,19.00
2022-08-16T01:24:05.528Z,19.00
2022-08-16T01:25:09.575Z,19.00
2022-08-16T01:25:36.500Z,19.00
2022-08-16T01:26:34.298Z,19.00
2022-08-16T01:26:45.562Z,19.00
2022-08-16T01:27:17.674Z,19.00
2022-08-16T01:27:49.608Z,19.00
2022-08-16T01:28:22.533Z,19.00
2022-08-16T01:28:45.557Z,19.00
2022-08-16T01:29:09.927Z,18.88
2022-08-16T01:29:56.899Z,18.88
2022-08-16T01:30:20.681Z,18.88
2022-08-16T01:30:34.771Z,18.88
2022-08-16T01:31:01.777Z,18.88
2022-08-16T01:31:34.511Z,18.88
2022-08-16T01:32:05.551Z,18.88
2022-08-16T01:32:34.708Z,18.88
2022-08-16T01:32:59.621Z,18.77
2022-08-16T01:33:25.714Z,18.77
2022-08-16T01:33:57.569Z,18.77
2022-08-16T01:34:29.714Z,18.77
2022-08-16T01:35:01.683Z,18.77
2022-08-16T01:35:52.269Z,18.77
2022-08-16T01:36:21.547Z,18.77
2022-08-16T01:36:39.721Z,18.77
2022-08-16T01:37:10.234Z,18.77
2022-08-16T01:37:35.502Z,18.77
2022-08-16T01:37:57.646Z,18.88
2022-08-16T01:38:29.751Z,18.88
2022-08-16T01:39:01.631Z,18.88
2022-08-16T01:39:33.534Z,18.88
2022-08-16T01:40:07.315Z,18.88
2022-08-16T01:40:37.110Z,18.77
2022-08-16T01:40:53.421Z,18.77
2022-08-16T01:41:25.632Z,18.77
2022-08-16T01:42:00.076Z,18.77
2022-08-16T01:42:29.826Z,18.88
2022-08-16T01:43:01.685Z,18.88
2022-08-16T01:43:33.737Z,18.88
2022-08-16T01:44:05.712Z,18.88
2022-08-16T01:44:37.655Z,18.88
2022-08-16T01:44:53.705Z,18.77
2022-08-16T01:45:39.627Z,18.77
2022-08-16T01:45:43.555Z,18.77
2022-08-16T01:46:38.019Z,18.77
2022-08-16T01:46:45.511Z,18.77
2022-08-16T01:47:22.682Z,18.77
2022-08-16T01:47:36.524Z,18.77
2022-08-16T01:48:19.664Z,18.77
2022-08-16T01:48:34.790Z,18.77
2022-08-16T01:48:53.482Z,18.77
2022-08-16T01:49:25.524Z,18.77
2022-08-16T01:50:41.867Z,18.77
2022-08-16T01:51:17.598Z,18.77
2022-08-16T01:51:49.723Z,18.72
2022-08-16T01:52:29.476Z,18.72
2022-08-16T01:52:39.014Z,18.72
2022-08-16T01:53:10.043Z,18.72
2022-08-16T01:53:34.702Z,18.72
2022-08-16T01:53:57.516Z,18.72
2022-08-16T01:54:30.486Z,18.72
2022-08-16T01:55:01.546Z,18.72
2022-08-16T01:55:35.646Z,18.72
2022-08-16T01:56:05.556Z,18.72
2022-08-16T01:56:34.824Z,18.72
2022-08-16T01:56:53.590Z,18.72
2022-08-16T01:57:25.476Z,18.72
2022-08-16T01:57:53.511Z,18.72
2022-08-16T01:58:13.507Z,18.72
2022-08-16T01:58:34.712Z,18.72
2022-08-16T01:59:01.627Z,18.72
2022-08-16T01:59:33.564Z,18.61
2022-08-16T02:00:05.895Z,18.61
2022-08-16T02:00:34.660Z,18.61
2022-08-16T02:00:54.897Z,18.61
2022-08-16T02:01:25.973Z,18.50
2022-08-16T02:02:00.493Z,18.50
2022-08-16T02:02:30.014Z,18.50
2022-08-16T02:03:02.451Z,18.50
2022-08-16T02:03:35.572Z,18.50
2022-08-16T02:04:10.377Z,18.61
2022-08-16T02:04:49.269Z,18.61
2022-08-16T02:05:10.616Z,18.72
2022-08-16T02:05:34.853Z,18.72
2022-08-16T02:05:57.493Z,18.72
2022-08-16T02:06:34.199Z,18.72
2022-08-16T02:07:01.505Z,18.72
2022-08-16T02:07:33.526Z,18.72
2022-08-16T02:08:05.533Z,18.72
2022-08-16T02:08:34.816Z,18.72
2022-08-16T02:08:53.717Z,18.72
2022-08-16T02:09:25.512Z,18.72
2022-08-16T02:09:59.527Z,18.72
2022-08-16T02:10:29.784Z,18.72
2022-08-16T02:11:01.560Z,18.72
2022-08-16T02:11:48.290Z,18.72
2022-08-16T02:12:39.776Z,18.72
2022-08-16T02:13:10.034Z,18.72
2022-08-16T02:13:34.837Z,18.72
2022-08-16T02:13:57.514Z,18.72
2022-08-16T02:14:29.756Z,18.72
2022-08-16T02:15:01.882Z,18.72
2022-08-16T02:15:35.479Z,18.72
2022-08-16T02:16:06.330Z,18.72
2022-08-16T02:16:36.206Z,18.61
2022-08-16T02:16:53.534Z,18.61
2022-08-16T02:17:28.553Z,18.72
2022-08-16T02:17:57.750Z,18.72
2022-08-16T02:18:31.439Z,18.72
2022-08-16T02:19:01.547Z,18.72
2022-08-16T02:19:59.645Z,18.72
2022-08-16T02:20:11.615Z,18.72
2022-08-16T02:20:35.097Z,18.72
2022-08-16T02:20:53.751Z,18.72
2022-08-16T02:21:31.289Z,18.72
2022-08-16T02:22:07.847Z,18.72
2022-08-16T02:22:41.811Z,18.61
2022-08-16T02:23:01.818Z,18.61
2022-08-16T02:23:34.422Z,18.61
2022-08-16T02:24:31.470Z,18.61
2022-08-16T02:24:41.320Z,18.61
2022-08-16T02:24:53.479Z,18.61
2022-08-16T02:25:51.077Z,18.61
2022-08-16T02:25:57.616Z,18.61
2022-08-16T02:26:29.782Z,18.61
2022-08-16T02:27:01.902Z,18.61
2022-08-16T02:27:34.174Z,18.61
2022-08-16T02:28:05.597Z,18.50
2022-08-16T02:28:34.694Z,18.50
2022-08-16T02:28:53.436Z,18.50
2022-08-16T02:29:25.505Z,18.50
2022-08-16T02:29:42.600Z,18.50
2022-08-16T02:30:36.719Z,18.50
2022-08-16T02:30:50.516Z,18.50
2022-08-16T02:31:17.462Z,18.50
2022-08-16T02:32:02.586Z,18.38
2022-08-16T02:32:50.071Z,18.38
2022-08-16T02:33:09.973Z,18.38
2022-08-16T02:33:44.496Z,18.38
2022-08-16T02:33:57.520Z,18.38
2022-08-16T02:34:32.905Z,18.38
2022-08-16T02:35:01.875Z,18.38
2022-08-16T02:35:53.922Z,18.38
2022-08-16T02:36:05.473Z,18.27
2022-08-16T02:36:48.009Z,18.27
2022-08-16T02:36:54.180Z,18.27
2022-08-16T02:37:51.532Z,18.27
2022-08-16T02:37:57.504Z,18.27
2022-08-16T02:38:31.551Z,18.27
2022-08-16T02:39:01.581Z,18.27
2022-08-16T02:39:33.452Z,18.22
2022-08-16T02:40:05.803Z,18.22
2022-08-16T02:40:34.717Z,18.22
2022-08-16T02:40:54.614Z,18.22
2022-08-16T02:41:27.474Z,18.22
2022-08-16T02:41:59.365Z,18.22
2022-08-16T02:42:29.845Z,18.22
2022-08-16T02:43:01.543Z,18.22
2022-08-16T02:43:33.484Z,18.22
2022-08-16T02:44:05.452Z,18.22
2022-08-16T02:44:34.694Z,18.22
2022-08-16T02:44:53.473Z,18.22
2022-08-16T02:45:27.830Z,18.22
2022-08-16T02:45:43.526Z,18.22
2022-08-16T02:46:14.544Z,18.22
2022-08-16T02:46:34.690Z,18.22
2022-08-16T02:47:02.577Z,18.22
2022-08-16T02:47:34.603Z,18.22
2022-08-16T02:48:29.414Z,18.22
2022-08-16T02:48:35.803Z,18.22
2022-08-16T02:48:53.563Z,18.22
2022-08-16T02:49:58.023Z,18.22
2022-08-16T02:50:54.189Z,18.22
2022-08-16T02:51:17.527Z,18.22
2022-08-16T02:51:35.846Z,18.22
2022-08-16T02:52:05.492Z,18.22
2022-08-16T02:52:34.833Z,18.22
2022-08-16T02:52:54.329Z,18.27
2022-08-16T02:53:25.450Z,18.27
2022-08-16T02:53:43.289Z,18.27
2022-08-16T02:54:13.450Z,18.27
2022-08-16T02:54:36.172Z,18.27
2022-08-16T02:55:01.556Z,18.27
2022-08-16T02:55:40.906Z,18.27
2022-08-16T02:56:05.519Z,18.27
2022-08-16T02:56:34.700Z,18.27
2022-08-16T02:56:54.236Z,18.27
2022-08-16T02:57:25.562Z,18.27
2022-08-16T02:57:58.365Z,18.27
2022-08-16T02:58:30.748Z,18.22
2022-08-16T02:59:14.760Z,18.22
2022-08-16T02:59:39.745Z,18.22
2022-08-16T03:00:34.373Z,18.22
2022-08-16T03:00:37.461Z,18.22
2022-08-16T03:01:12.659Z,18.22
2022-08-16T03:01:37.158Z,18.11
2022-08-16T03:01:57.624Z,18.11
2022-08-16T03:02:31.756Z,18.11
2022-08-16T03:03:04.317Z,18.11
2022-08-16T03:04:39.886Z,18.11
2022-08-16T03:04:53.500Z,18.11
2022-08-16T03:05:26.611Z,18.11
2022-08-16T03:05:57.480Z,18.11
2022-08-16T03:06:42.022Z,18.11
2022-08-16T03:07:04.341Z,18.11
2022-08-16T03:07:36.939Z,18.11
2022-08-16T03:08:06.154Z,18.11
2022-08-16T03:08:54.479Z,18.11
2022-08-16T03:09:25.534Z,18.00
2022-08-16T03:09:44.627Z,18.00
2022-08-16T03:10:13.488Z,18.00
2022-08-16T03:10:34.695Z,18.00
2022-08-16T03:11:01.612Z,18.00
2022-08-16T03:11:35.506Z,18.00
2022-08-16T03:12:06.441Z,18.00
2022-08-16T03:12:36.633Z,18.00
2022-08-16T03:12:56.034Z,18.00
2022-08-16T03:13:25.469Z,18.00
2022-08-16T03:13:42.624Z,18.00
2022-08-16T03:14:14.449Z,18.00
2022-08-16T03:14:35.508Z,18.00
2022-08-16T03:15:01.527Z,18.00
2022-08-16T03:15:33.464Z,18.00
2022-08-16T03:16:07.441Z,18.00
2022-08-16T03:16:59.575Z,18.00
2022-08-16T03:17:32.324Z,18.00
2022-08-16T03:17:58.544Z,18.00
2022-08-16T03:18:34.679Z,18.00
2022-08-16T03:19:01.647Z,18.00
2022-08-16T03:19:45.823Z,18.00
2022-08-16T03:20:05.697Z,18.00
2022-08-16T03:20:36.678Z,18.00
2022-08-16T03:20:55.710Z,18.00
2022-08-16T03:21:25.515Z,18.00
2022-08-16T03:21:42.769Z,18.00
2022-08-16T03:22:13.379Z,18.00
2022-08-16T03:22:34.681Z,18.00
2022-08-16T03:23:02.131Z,18.00
2022-08-16T03:23:35.708Z,18.00
2022-08-16T03:24:29.174Z,18.00
2022-08-16T03:24:35.715Z,17.88
2022-08-16T03:24:53.363Z,17.88
2022-08-16T03:25:25.423Z,17.88
2022-08-16T03:25:58.508Z,17.88
2022-08-16T03:26:29.855Z,17.88
2022-08-16T03:27:02.924Z,17.88
2022-08-16T03:27:33.515Z,18.00
2022-08-16T03:28:05.460Z,18.00
2022-08-16T03:28:34.704Z,18.00
2022-08-16T03:28:53.668Z,18.00
2022-08-16T03:29:25.539Z,18.00
2022-08-16T03:29:54.624Z,18.00
2022-08-16T03:30:17.532Z,18.00
2022-08-16T03:30:34.742Z,18.00
2022-08-16T03:31:01.553Z,18.00
2022-08-16T03:31:34.870Z,18.00
2022-08-16T03:32:05.443Z,18.00
2022-08-16T03:32:34.808Z,18.00
2022-08-16T03:32:53.743Z,18.00
2022-08-16T03:33:26.227Z,18.00
2022-08-16T03:33:42.792Z,18.00
2022-08-16T03:34:13.470Z,18.00
2022-08-16T03:34:35.570Z,18.00
2022-08-16T03:35:01.807Z,17.88
2022-08-16T03:35:40.263Z,17.88
2022-08-16T03:36:30.938Z,17.88
2022-08-16T03:36:37.436Z,17.88
2022-08-16T03:37:09.966Z,17.88
2022-08-16T03:38:01.868Z,17.88
2022-08-16T03:38:33.539Z,17.88
2022-08-16T03:38:45.537Z,17.88
2022-08-16T03:39:20.272Z,18.00
2022-08-16T03:39:56.675Z,18.00
2022-08-16T03:40:31.382Z,18.00
2022-08-16T03:40:38.876Z,18.00
2022-08-16T03:41:17.054Z,18.00
2022-08-16T03:41:49.796Z,18.00
2022-08-16T03:41:59.375Z,18.00
2022-08-16T03:42:29.818Z,18.00
2022-08-16T03:43:19.763Z,18.00
2022-08-16T03:43:51.149Z,18.00
2022-08-16T03:44:05.565Z,18.11
2022-08-16T03:44:44.855Z,18.11
2022-08-16T03:44:53.556Z,18.11
2022-08-16T03:45:30.536Z,18.11
2022-08-16T03:45:43.222Z,18.11
2022-08-16T03:46:25.449Z,18.11
2022-08-16T03:47:01.452Z,18.11
2022-08-16T03:47:34.322Z,18.11
2022-08-16T03:48:07.102Z,18.22
2022-08-16T03:48:39.867Z,18.22
2022-08-16T03:48:53.700Z,18.22
2022-08-16T03:49:36.725Z,18.22
2022-08-16T03:49:57.497Z,18.22
2022-08-16T03:50:29.771Z,18.22
2022-08-16T03:51:01.457Z,18.22
2022-08-16T03:51:33.405Z,18.22
2022-08-16T03:52:05.441Z,18.22
2022-08-16T03:52:34.678Z,18.22
2022-08-16T03:52:59.634Z,18.22
2022-08-16T03:53:25.454Z,18.22
2022-08-16T03:53:43.198Z,18.22
2022-08-16T03:54:14.332Z,18.22
2022-08-16T03:54:35.604Z,18.22
2022-08-16T03:55:02.261Z,18.22
2022-08-16T03:55:45.490Z,18.22
2022-08-16T03:56:05.490Z,18.22
2022-08-16T03:56:34.683Z,18.22
2022-08-16T03:56:56.797Z,18.22
2022-08-16T03:57:32.162Z,18.22
2022-08-16T03:57:42.569Z,18.22
2022-08-16T03:58:13.404Z,18.22
2022-08-16T03:58:34.905Z,18.22
2022-08-16T03:59:02.333Z,18.22
2022-08-16T03:59:43.641Z,18.22
2022-08-16T04:00:05.931Z,18.22
2022-08-16T04:00:41.075Z,18.22
2022-08-16T04:00:59.019Z,18.22
2022-08-16T04:01:29.337Z,18.22
2022-08-16T04:01:43.398Z,18.22
2022-08-16T04:02:22.430Z,18.22
2022-08-16T04:02:35.387Z,18.22
2022-08-16T04:03:01.426Z,18.22
2022-08-16T04:03:34.568Z,18.22
2022-08-16T04:04:06.035Z,18.22
2022-08-16T04:04:34.674Z,18.22
2022-08-16T04:04:54.382Z,18.22
2022-08-16T04:05:26.311Z,18.22
2022-08-16T04:05:59.553Z,18.11
2022-08-16T04:06:29.816Z,18.11
2022-08-16T04:07:02.814Z,18.11
2022-08-16T04:07:33.704Z,18.11
2022-08-16T04:08:23.666Z,18.11
2022-08-16T04:08:34.842Z,18.11
2022-08-16T04:08:53.379Z,18.11
2022-08-16T04:09:25.331Z,18.11
2022-08-16T04:09:42.553Z,18.11
2022-08-16T04:10:36.912Z,18.11
2022-08-16T04:10:45.374Z,18.11
2022-08-16T04:11:18.564Z,18.11
2022-08-16T04:11:49.757Z,18.11
2022-08-16T04:12:53.220Z,18.00
2022-08-16T04:13:20.945Z,18.00
2022-08-16T04:14:32.652Z,18.00
2022-08-16T04:14:46.396Z,18.00
2022-08-16T04:15:17.602Z,18.00
2022-08-16T04:15:49.752Z,18.00
2022-08-16T04:16:27.833Z,18.00
2022-08-16T04:16:40.222Z,17.88
2022-08-16T04:17:10.017Z,17.88
2022-08-16T04:17:36.315Z,17.88
2022-08-16T04:17:57.760Z,17.77
2022-08-16T04:18:30.500Z,17.77
2022-08-16T04:19:04.081Z,17.77
2022-08-16T04:19:37.623Z,17.77
2022-08-16T04:20:06.589Z,17.77
2022-08-16T04:20:37.052Z,17.77
2022-08-16T04:20:53.596Z,17.77
2022-08-16T04:21:29.360Z,17.77
2022-08-16T04:21:45.977Z,17.77
2022-08-16T04:22:13.775Z,17.77
2022-08-16T04:22:36.887Z,17.77
2022-08-16T04:23:03.325Z,17.77
2022-08-16T04:23:33.564Z,17.77
2022-08-16T04:24:07.971Z,17.77
2022-08-16T04:24:36.003Z,17.77
2022-08-16T04:24:55.081Z,17.77
2022-08-16T04:25:25.590Z,17.77
2022-08-16T04:25:43.105Z,17.77
2022-08-16T04:26:16.589Z,17.77
2022-08-16T04:26:35.048Z,17.72
2022-08-16T04:27:01.913Z,17.72
2022-08-16T04:27:33.587Z,17.72
2022-08-16T04:28:51.967Z,17.72
2022-08-16T04:29:18.298Z,17.72
2022-08-16T04:29:46.064Z,17.72
2022-08-16T04:30:03.193Z,17.72
2022-08-16T04:30:31.702Z,17.72
2022-08-16T04:31:01.555Z,17.72
2022-08-16T04:31:33.583Z,17.72
2022-08-16T04:32:05.587Z,17.72
2022-08-16T04:32:35.517Z,17.72
2022-08-16T04:32:53.637Z,17.72
2022-08-16T04:33:27.480Z,17.72
2022-08-16T04:33:57.587Z,17.72
2022-08-16T04:34:30.434Z,17.72
2022-08-16T04:35:08.462Z,17.72
2022-08-16T04:35:34.047Z,17.72
2022-08-16T04:36:05.550Z,17.72
2022-08-16T04:36:34.966Z,17.72
2022-08-16T04:36:53.598Z,17.72
2022-08-16T04:37:25.584Z,17.72
2022-08-16T04:37:42.656Z,17.72
2022-08-16T04:38:20.849Z,17.72
2022-08-16T04:38:34.861Z,17.72
2022-08-16T04:39:01.825Z,17.72
2022-08-16T04:39:45.897Z,17.72
2022-08-16T04:40:05.942Z,17.72
2022-08-16T04:40:35.007Z,17.72
2022-08-16T04:40:54.370Z,17.72
2022-08-16T04:41:32.599Z,17.72
2022-08-16T04:41:58.935Z,17.61
2022-08-16T04:42:30.365Z,17.61
2022-08-16T04:43:01.552Z,17.61
2022-08-16T04:43:33.499Z,17.72
2022-08-16T04:44:32.429Z,17.72
2022-08-16T04:45:10.910Z,17.77
2022-08-16T04:45:35.814Z,17.77
2022-08-16T04:46:00.458Z,17.77
2022-08-16T04:47:00.732Z,17.77
2022-08-16T04:47:21.792Z,17.77
2022-08-16T04:47:56.163Z,17.77
2022-08-16T04:48:32.529Z,17.77
2022-08-16T04:48:40.139Z,17.77
2022-08-16T04:49:09.922Z,17.77
2022-08-16T04:49:43.958Z,17.77
2022-08-16T04:49:57.631Z,17.77
2022-08-16T04:50:30.515Z,17.77
2022-08-16T04:51:01.554Z,17.72
2022-08-16T04:51:36.053Z,17.72
2022-08-16T04:52:05.565Z,17.72
2022-08-16T04:52:37.491Z,17.72
2022-08-16T04:53:15.843Z,17.72
2022-08-16T04:53:34.833Z,17.72
2022-08-16T04:53:57.508Z,17.72
2022-08-16T04:54:30.049Z,17.61
2022-08-16T04:55:03.377Z,17.61
2022-08-16T04:55:38.364Z,17.61
2022-08-16T04:56:05.529Z,17.61
2022-08-16T04:56:42.924Z,17.61
2022-08-16T04:57:09.923Z,17.61
2022-08-16T04:57:34.885Z,17.61
2022-08-16T04:57:57.657Z,17.61
2022-08-16T04:58:45.158Z,17.61
2022-08-16T04:59:01.602Z,17.61
2022-08-16T04:59:33.484Z,17.61
2022-08-16T05:00:30.561Z,17.61
2022-08-16T05:00:37.496Z,17.61
2022-08-16T05:01:58.004Z,17.61
2022-08-16T05:02:42.419Z,17.61
2022-08-16T05:03:07.144Z,17.61
2022-08-16T05:03:59.816Z,17.61
2022-08-16T05:04:05.549Z,17.61
2022-08-16T05:04:38.270Z,17.61
2022-08-16T05:05:17.742Z,17.72
2022-08-16T05:05:36.832Z,17.72
2022-08-16T05:06:02.961Z,17.72
2022-08-16T05:06:44.611Z,17.72
2022-08-16T05:07:02.144Z,17.72
2022-08-16T05:07:34.241Z,17.72
2022-08-16T05:08:29.199Z,17.72
2022-08-16T05:08:34.860Z,17.72
2022-08-16T05:08:56.570Z,17.72
2022-08-16T05:09:25.495Z,17.61
2022-08-16T05:09:49.145Z,17.61
2022-08-16T05:10:19.885Z,17.61
2022-08-16T05:10:34.880Z,17.61
2022-08-16T05:11:03.681Z,17.61
2022-08-16T05:11:33.450Z,17.61
2022-08-16T05:12:05.550Z,17.72
2022-08-16T05:12:34.835Z,17.72
2022-08-16T05:12:54.440Z,17.72
2022-08-16T05:13:40.811Z,17.72
2022-08-16T05:14:06.884Z,17.72
2022-08-16T05:14:46.639Z,17.72
2022-08-16T05:15:19.449Z,17.72
2022-08-16T05:15:50.061Z,17.72
2022-08-16T05:16:23.095Z,17.72
2022-08-16T05:16:38.849Z,17.77
2022-08-16T05:17:09.927Z,17.77
2022-08-16T05:17:34.875Z,17.77
2022-08-16T05:17:58.557Z,17.77
2022-08-16T05:18:29.998Z,17.77
2022-08-16T05:19:01.535Z,17.77
2022-08-16T05:19:36.075Z,17.77
2022-08-16T05:20:39.326Z,17.77
2022-08-16T05:21:11.285Z,17.77
2022-08-16T05:21:38.802Z,17.77
2022-08-16T05:21:57.552Z,17.77
2022-08-16T05:22:30.669Z,17.77
2022-08-16T05:23:01.568Z,17.77
2022-08-16T05:23:34.436Z,17.77
2022-08-16T05:24:05.971Z,17.77
2022-08-16T05:24:38.180Z,17.77
2022-08-16T05:25:09.956Z,17.77
2022-08-16T05:25:40.805Z,17.88
2022-08-16T05:25:57.498Z,18.00
2022-08-16T05:26:29.905Z,18.00
2022-08-16T05:27:11.059Z,18.11
2022-08-16T05:27:34.614Z,18.11
2022-08-16T05:28:05.485Z,18.11
2022-08-16T05:28:37.507Z,18.11
2022-08-16T05:28:55.247Z,18.11
2022-08-16T05:29:59.390Z,18.11
2022-08-16T05:30:35.783Z,18.11
2022-08-16T05:30:45.424Z,18.11
2022-08-16T05:31:33.199Z,18.11
2022-08-16T05:32:05.512Z,18.11
2022-08-16T05:32:45.672Z,18.11
2022-08-16T05:33:16.298Z,18.11
2022-08-16T05:33:37.103Z,18.11
2022-08-16T05:33:57.503Z,18.11
2022-08-16T05:34:29.960Z,18.11
2022-08-16T05:35:01.522Z,18.22
2022-08-16T05:35:34.112Z,18.22
2022-08-16T05:36:14.314Z,18.22
2022-08-16T05:36:36.982Z,18.22
2022-08-16T05:36:53.385Z,18.22
2022-08-16T05:37:25.473Z,18.22
2022-08-16T05:37:42.668Z,18.22
2022-08-16T05:38:32.766Z,18.22
2022-08-16T05:38:45.502Z,18.22
2022-08-16T05:39:17.567Z,18.22
2022-08-16T05:39:49.957Z,18.22
2022-08-16T05:40:21.505Z,18.22
2022-08-16T05:40:40.591Z,18.22
2022-08-16T05:41:09.790Z,18.22
2022-08-16T05:41:44.713Z,18.22
2022-08-16T05:41:57.511Z,18.22
2022-08-16T05:42:35.588Z,18.22
2022-08-16T05:43:01.470Z,18.22
2022-08-16T05:43:43.341Z,18.22
2022-08-16T05:44:23.712Z,18.22
2022-08-16T05:44:36.734Z,18.22
2022-08-16T05:44:53.599Z,18.22
2022-08-16T05:45:25.629Z,18.22
2022-08-16T05:45:42.936Z,18.22
2022-08-16T05:46:28.735Z,18.22
2022-08-16T05:46:35.629Z,18.22
2022-08-16T05:47:02.307Z,18.22
2022-08-16T05:47:33.407Z,18.22
2022-08-16T05:48:06.462Z,18.22
2022-08-16T05:48:35.065Z,18.22
2022-08-16T05:48:54.638Z,18.22
2022-08-16T05:49:25.522Z,18.22
2022-08-16T05:49:42.915Z,18.22
2022-08-16T05:50:18.907Z,18.22
2022-08-16T05:50:35.950Z,18.22
2022-08-16T05:51:35.312Z,18.22
2022-08-16T05:51:49.927Z,18.22
2022-08-16T05:52:21.491Z,18.22
2022-08-16T05:52:40.636Z,18.22
2022-08-16T05:53:09.897Z,18.22
2022-08-16T05:53:36.387Z,18.22
2022-08-16T05:53:57.501Z,18.22
2022-08-16T05:54:34.574Z,18.22
2022-08-16T05:55:01.915Z,18.22
2022-08-16T05:55:35.131Z,18.27
2022-08-16T05:56:21.197Z,18.27
2022-08-16T05:56:43.001Z,18.27
2022-08-16T05:57:13.240Z,18.38
2022-08-16T05:57:35.706Z,18.38
2022-08-16T05:57:57.441Z,18.38
2022-08-16T05:58:32.732Z,18.38
2022-08-16T05:59:01.544Z,18.38
2022-08-16T05:59:34.152Z,18.50
2022-08-16T06:00:09.305Z,18.50
2022-08-16T06:00:34.878Z,18.50
2022-08-16T06:00:53.757Z,18.61
2022-08-16T06:01:25.617Z,18.61
2022-08-16T06:01:42.610Z,18.61
2022-08-16T06:02:13.434Z,18.72
2022-08-16T06:02:40.356Z,18.72
2022-08-16T06:03:01.445Z,18.72
2022-08-16T06:03:34.263Z,18.77
2022-08-16T06:04:13.388Z,18.77
2022-08-16T06:04:54.501Z,18.77
2022-08-16T06:05:27.142Z,18.77
2022-08-16T06:06:00.625Z,18.88
2022-08-16T06:06:29.915Z,19.00
2022-08-16T06:07:04.521Z,19.11
2022-08-16T06:07:33.423Z,19.11
2022-08-16T06:08:05.458Z,19.22
2022-08-16T06:08:42.288Z,19.22
2022-08-16T06:08:53.413Z,19.22
2022-08-16T06:09:42.914Z,19.22
2022-08-16T06:09:57.660Z,19.22
2022-08-16T06:10:32.540Z,19.27
2022-08-16T06:11:03.061Z,19.27
2022-08-16T06:11:33.481Z,19.38
2022-08-16T06:12:05.467Z,19.38
2022-08-16T06:12:34.883Z,19.38
2022-08-16T06:12:56.002Z,19.38
2022-08-16T06:13:26.388Z,19.50
2022-08-16T06:13:42.842Z,19.50
2022-08-16T06:14:14.584Z,19.50
2022-08-16T06:14:38.089Z,19.50
2022-08-16T06:15:01.537Z,19.61
2022-08-16T06:15:34.054Z,19.61
2022-08-16T06:16:05.819Z,19.72
2022-08-16T06:16:34.895Z,19.72
2022-08-16T06:16:53.412Z,19.72
2022-08-16T06:17:25.437Z,19.72
2022-08-16T06:17:57.705Z,19.72
2022-08-16T06:18:29.989Z,19.72
2022-08-16T06:19:05.009Z,19.72
2022-08-16T06:19:34.004Z,19.72
2022-08-16T06:20:05.741Z,19.77
2022-08-16T06:20:36.810Z,19.77
2022-08-16T06:20:55.793Z,19.77
2022-08-16T06:21:25.418Z,19.77
2022-08-16T06:21:42.626Z,19.77